createdAt,value
2016-11-24T00:00:46.060Z,0
2016-11-24T00:01:46.040Z,0
2016-11-24T00:02:46.028Z,0
2016-11-24T00:03:46.031Z,0
2016-11-24T00:04:46.010Z,0
2016-11-24T00:05:46.003Z,0
2016-11-24T00:06:45.993Z,0
2016-11-24T00:07:45.973Z,0
2016-11-24T00:08:45.970Z,0
2016-11-24T00:09:45.967Z,0
2016-11-24T00:10:46.269Z,0
2016-11-24T00:11:45.948Z,0
2016-11-24T00:12:45.940Z,0
2016-11-24T00:13:45.928Z,0
2016-11-24T00:14:45.927Z,0
2016-11-24T00:15:45.919Z,0
2016-11-24T00:16:45.899Z,0
2016-11-24T00:17:45.918Z,0
2016-11-24T00:18:45.872Z,0
2016-11-24T00:19:45.873Z,0
2016-11-24T00:20:45.870Z,0
2016-11-24T00:21:46.159Z,0
2016-11-24T00:22:45.845Z,0
2016-11-24T00:23:45.827Z,0
2016-11-24T00:24:45.825Z,0
2016-11-24T00:25:45.809Z,0
2016-11-24T00:26:45.800Z,0
2016-11-24T00:27:45.796Z,0
2016-11-24T00:28:45.790Z,0
2016-11-24T00:29:45.772Z,0
2016-11-24T00:30:45.770Z,0
2016-11-24T00:31:45.760Z,0
2016-11-24T00:32:45.773Z,0
2016-11-24T00:33:45.744Z,0
2016-11-24T00:34:45.734Z,0
2016-11-24T00:35:45.713Z,0
2016-11-24T00:36:45.731Z,0
2016-11-24T00:37:45.692Z,0
2016-11-24T00:38:45.683Z,0
2016-11-24T00:39:45.679Z,0
2016-11-24T00:40:45.676Z,0
2016-11-24T00:41:45.654Z,0
2016-11-24T00:42:45.663Z,0
2016-11-24T00:43:45.645Z,0
2016-11-24T00:44:45.625Z,0
2016-11-24T00:45:45.615Z,0
2016-11-24T00:46:45.608Z,0
2016-11-24T00:47:45.598Z,0
2016-11-24T00:48:45.899Z,0
2016-11-24T00:49:45.576Z,0
2016-11-24T00:50:45.577Z,0
2016-11-24T00:51:45.571Z,0
2016-11-24T00:52:45.552Z,0
2016-11-24T00:53:45.537Z,0
2016-11-24T00:54:45.531Z,0
2016-11-24T00:55:45.523Z,0
2016-11-24T00:56:45.510Z,0
2016-11-24T00:57:45.530Z,0
2016-11-24T00:58:45.495Z,0
2016-11-24T00:59:45.491Z,0
2016-11-24T01:00:45.475Z,0
2016-11-24T01:01:45.472Z,0
2016-11-24T01:02:45.468Z,0
2016-11-24T01:03:45.457Z,0
2016-11-24T01:04:45.438Z,0
2016-11-24T01:05:45.426Z,0
2016-11-24T01:06:45.417Z,0
2016-11-24T01:07:45.719Z,0
2016-11-24T01:08:45.400Z,0
2016-11-24T01:09:45.386Z,0
2016-11-24T01:10:45.379Z,0
2016-11-24T01:11:45.371Z,0
2016-11-24T01:12:45.666Z,0
2016-11-24T01:13:45.363Z,0
2016-11-24T01:14:45.341Z,0
2016-11-24T01:15:45.336Z,0
2016-11-24T01:16:45.316Z,0
2016-11-24T01:17:45.315Z,0
2016-11-24T01:18:45.306Z,0
2016-11-24T01:19:45.290Z,0
2016-11-24T01:20:45.280Z,0
2016-11-24T01:21:45.289Z,0
2016-11-24T01:22:45.266Z,0
2016-11-24T01:23:45.263Z,0
2016-11-24T01:24:45.275Z,0
2016-11-24T01:25:45.244Z,0
2016-11-24T01:26:45.231Z,0
2016-11-24T01:27:45.212Z,0
2016-11-24T01:28:45.206Z,0
2016-11-24T01:29:45.204Z,0
2016-11-24T01:30:45.246Z,0
2016-11-24T01:31:45.180Z,0
2016-11-24T01:32:45.171Z,0
2016-11-24T01:33:45.166Z,0
2016-11-24T01:34:45.189Z,0
2016-11-24T01:35:45.171Z,0
2016-11-24T01:36:45.134Z,0
2016-11-24T01:37:45.118Z,0
2016-11-24T01:38:45.108Z,0
2016-11-24T01:39:45.106Z,0
2016-11-24T01:40:45.102Z,0
2016-11-24T01:41:45.078Z,0
2016-11-24T01:42:45.080Z,0
2016-11-24T01:43:45.369Z,0
2016-11-24T01:44:45.061Z,0
2016-11-24T01:45:45.046Z,0
2016-11-24T01:46:45.033Z,0
2016-11-24T01:47:45.030Z,0
2016-11-24T01:48:45.016Z,0
2016-11-24T01:49:45.018Z,0
2016-11-24T01:50:44.991Z,0
2016-11-24T01:51:44.991Z,0
2016-11-24T01:52:44.978Z,0
2016-11-24T01:53:44.974Z,0
2016-11-24T01:54:44.969Z,0
2016-11-24T01:55:45.006Z,0
2016-11-24T01:56:44.946Z,0
2016-11-24T01:57:44.928Z,0
2016-11-24T01:58:44.921Z,0
2016-11-24T01:59:44.917Z,0
2016-11-24T02:00:44.904Z,0
2016-11-24T02:01:44.893Z,0
2016-11-24T02:02:44.893Z,0
2016-11-24T02:03:44.868Z,0
2016-11-24T02:04:44.894Z,0
2016-11-24T02:05:44.855Z,0
2016-11-24T02:06:44.843Z,0
2016-11-24T02:07:44.834Z,0
2016-11-24T02:08:44.834Z,0
2016-11-24T02:09:44.824Z,0
2016-11-24T02:10:44.811Z,0
2016-11-24T02:11:44.803Z,0
2016-11-24T02:12:44.821Z,0
2016-11-24T02:13:44.773Z,0
2016-11-24T02:14:44.775Z,0
2016-11-24T02:15:44.762Z,0
2016-11-24T02:16:44.750Z,0
2016-11-24T02:17:44.741Z,0
2016-11-24T02:18:44.730Z,0
2016-11-24T02:19:44.719Z,0
2016-11-24T02:20:44.718Z,0
2016-11-24T02:21:44.704Z,0
2016-11-24T02:22:44.695Z,0
2016-11-24T02:23:44.687Z,0
2016-11-24T02:24:44.675Z,0
2016-11-24T02:25:44.664Z,0
2016-11-24T02:26:44.661Z,0
2016-11-24T02:27:44.643Z,0
2016-11-24T02:28:44.628Z,0
2016-11-24T02:29:44.938Z,0
2016-11-24T02:30:44.620Z,0
2016-11-24T02:31:44.603Z,0
2016-11-24T02:32:44.629Z,0
2016-11-24T02:33:44.589Z,0
2016-11-24T02:34:44.586Z,0
2016-11-24T02:35:44.565Z,0
2016-11-24T02:36:44.593Z,0
2016-11-24T02:37:44.850Z,0
2016-11-24T02:38:44.543Z,0
2016-11-24T02:39:44.535Z,0
2016-11-24T02:40:44.858Z,0
2016-11-24T02:41:44.526Z,0
2016-11-24T02:42:44.542Z,0
2016-11-24T02:43:44.486Z,0
2016-11-24T02:44:44.484Z,0
2016-11-24T02:45:44.472Z,0
2016-11-24T02:46:44.463Z,0
2016-11-24T02:47:44.453Z,0
2016-11-24T02:48:44.444Z,0
2016-11-24T02:49:44.441Z,0
2016-11-24T02:50:44.422Z,0
2016-11-24T02:51:44.416Z,0
2016-11-24T02:52:44.402Z,0
2016-11-24T02:53:44.396Z,0
2016-11-24T02:54:44.385Z,0
2016-11-24T02:55:44.377Z,0
2016-11-24T02:56:44.369Z,0
2016-11-24T02:57:44.367Z,0
2016-11-24T02:58:44.350Z,0
2016-11-24T02:59:44.346Z,0
2016-11-24T03:00:44.320Z,0
2016-11-24T03:01:44.322Z,0
2016-11-24T03:02:44.312Z,0
2016-11-24T03:03:44.311Z,0
2016-11-24T03:04:44.592Z,0
2016-11-24T03:05:44.276Z,0
2016-11-24T03:06:44.266Z,0
2016-11-24T03:07:44.255Z,0
2016-11-24T03:08:44.256Z,0
2016-11-24T03:09:44.553Z,0
2016-11-24T03:10:44.546Z,0
2016-11-24T03:11:44.221Z,0
2016-11-24T03:12:44.211Z,0
2016-11-24T03:13:44.205Z,0
2016-11-24T03:14:44.202Z,0
2016-11-24T03:15:44.183Z,0
2016-11-24T03:16:44.178Z,0
2016-11-24T03:17:44.507Z,0
2016-11-24T03:18:44.150Z,0
2016-11-24T03:19:44.139Z,0
2016-11-24T03:20:44.145Z,0
2016-11-24T03:21:44.151Z,0
2016-11-24T03:22:44.108Z,0
2016-11-24T03:23:44.113Z,0
2016-11-24T03:24:44.093Z,0
2016-11-24T03:25:44.093Z,0
2016-11-24T03:26:44.075Z,0
2016-11-24T03:27:44.068Z,0
2016-11-24T03:28:44.047Z,0
2016-11-24T03:29:44.049Z,0
2016-11-24T03:30:44.070Z,0
2016-11-24T03:31:44.025Z,0
2016-11-24T03:32:44.022Z,0
2016-11-24T03:33:44.014Z,0
2016-11-24T03:34:43.993Z,0
2016-11-24T03:35:43.985Z,0
2016-11-24T03:36:43.987Z,0
2016-11-24T03:37:43.972Z,0
2016-11-24T03:38:43.960Z,0
2016-11-24T03:39:43.960Z,0
2016-11-24T03:40:43.937Z,0
2016-11-24T03:41:43.955Z,0
2016-11-24T03:42:43.921Z,0
2016-11-24T03:43:43.907Z,0
2016-11-24T03:44:43.901Z,0
2016-11-24T03:45:43.922Z,0
2016-11-24T03:46:43.893Z,0
2016-11-24T03:47:43.871Z,0
2016-11-24T03:48:43.859Z,0
2016-11-24T03:49:43.848Z,0
2016-11-24T03:50:43.830Z,0
2016-11-24T03:51:43.833Z,0
2016-11-24T03:52:43.816Z,0
2016-11-24T03:53:43.812Z,0
2016-11-24T03:54:43.808Z,0
2016-11-24T03:55:43.785Z,0
2016-11-24T03:56:43.776Z,0
2016-11-24T03:57:43.809Z,0
2016-11-24T03:58:43.764Z,0
2016-11-24T03:59:43.753Z,0
2016-11-24T04:00:43.733Z,0
2016-11-24T04:01:43.738Z,0
2016-11-24T04:02:43.717Z,0
2016-11-24T04:03:43.701Z,0
2016-11-24T04:04:43.722Z,0
2016-11-24T04:05:43.703Z,0
2016-11-24T04:06:43.684Z,0
2016-11-24T04:07:43.708Z,0
2016-11-24T04:08:43.659Z,0
2016-11-24T04:09:43.651Z,0
2016-11-24T04:10:43.636Z,0
2016-11-24T04:11:43.626Z,0
2016-11-24T04:12:43.629Z,0
2016-11-24T04:13:43.603Z,0
2016-11-24T04:14:43.596Z,0
2016-11-24T04:15:43.577Z,0
2016-11-24T04:16:43.576Z,0
2016-11-24T04:17:43.570Z,0
2016-11-24T04:18:43.564Z,0
2016-11-24T04:19:43.552Z,0
2016-11-24T04:20:43.541Z,0
2016-11-24T04:21:43.529Z,0
2016-11-24T04:22:43.508Z,0
2016-11-24T04:23:43.509Z,0
2016-11-24T04:24:43.497Z,0
2016-11-24T04:25:43.492Z,0
2016-11-24T04:26:43.480Z,0
2016-11-24T04:27:43.470Z,0
2016-11-24T04:28:43.454Z,0
2016-11-24T04:29:43.441Z,0
2016-11-24T04:30:43.438Z,0
2016-11-24T04:31:43.450Z,0
2016-11-24T04:32:43.405Z,0
2016-11-24T04:33:43.397Z,0
2016-11-24T04:34:43.395Z,0
2016-11-24T04:35:43.373Z,0
2016-11-24T04:36:43.379Z,0
2016-11-24T04:37:43.355Z,0
2016-11-24T04:38:43.355Z,0
2016-11-24T04:39:43.344Z,0
2016-11-24T04:40:43.335Z,0
2016-11-24T04:41:43.317Z,0
2016-11-24T04:42:43.314Z,0
2016-11-24T04:43:43.292Z,0
2016-11-24T04:44:43.594Z,0
2016-11-24T04:45:43.321Z,0
2016-11-24T04:46:43.272Z,0
2016-11-24T04:47:43.293Z,0
2016-11-24T04:48:43.247Z,0
2016-11-24T04:49:43.246Z,0
2016-11-24T04:50:43.219Z,0
2016-11-24T04:51:43.248Z,0
2016-11-24T04:52:43.214Z,0
2016-11-24T04:53:43.196Z,0
2016-11-24T04:54:43.184Z,0
2016-11-24T04:55:43.175Z,0
2016-11-24T04:56:43.162Z,0
2016-11-24T04:57:43.198Z,0
2016-11-24T04:58:43.145Z,0
2016-11-24T04:59:43.138Z,0
2016-11-24T05:00:43.166Z,0
2016-11-24T05:01:43.114Z,0
2016-11-24T05:02:43.111Z,0
2016-11-24T05:03:43.098Z,0
2016-11-24T05:04:43.088Z,0
2016-11-24T05:05:43.081Z,0
2016-11-24T05:06:43.072Z,0
2016-11-24T05:07:43.057Z,0
2016-11-24T05:08:43.049Z,0
2016-11-24T05:09:43.036Z,0
2016-11-24T05:10:43.022Z,0
2016-11-24T05:11:43.012Z,0
2016-11-24T05:12:43.005Z,0
2016-11-24T05:13:42.989Z,0
2016-11-24T05:14:42.983Z,0
2016-11-24T05:15:42.970Z,0
2016-11-24T05:16:42.968Z,0
2016-11-24T05:17:42.958Z,0
2016-11-24T05:18:42.946Z,0
2016-11-24T05:19:43.243Z,0
2016-11-24T05:20:42.925Z,0
2016-11-24T05:21:42.915Z,0
2016-11-24T05:22:42.902Z,0
2016-11-24T05:23:42.891Z,0
2016-11-24T05:24:42.887Z,0
2016-11-24T05:25:42.868Z,0
2016-11-24T05:26:42.858Z,0
2016-11-24T05:27:42.847Z,0
2016-11-24T05:28:42.845Z,0
2016-11-24T05:29:42.832Z,0
2016-11-24T05:30:42.847Z,0
2016-11-24T05:31:42.809Z,0
2016-11-24T05:32:42.801Z,0
2016-11-24T05:33:42.788Z,0
2016-11-24T05:34:42.772Z,0
2016-11-24T05:35:42.776Z,0
2016-11-24T05:36:42.758Z,0
2016-11-24T05:37:42.755Z,0
2016-11-24T05:38:42.758Z,0
2016-11-24T05:39:42.727Z,0
2016-11-24T05:40:42.727Z,0
2016-11-24T05:41:42.709Z,0
2016-11-24T05:42:42.696Z,0
2016-11-24T05:43:42.684Z,0
2016-11-24T05:44:42.689Z,0
2016-11-24T05:45:42.694Z,0
2016-11-24T05:46:42.652Z,0
2016-11-24T05:47:42.649Z,0
2016-11-24T05:48:42.632Z,0
2016-11-24T05:49:42.637Z,0
2016-11-24T05:50:42.627Z,0
2016-11-24T05:51:42.616Z,0
2016-11-24T05:52:42.596Z,0
2016-11-24T05:53:42.599Z,0
2016-11-24T05:54:42.576Z,0
2016-11-24T05:55:42.561Z,0
2016-11-24T05:56:42.567Z,0
2016-11-24T05:57:42.540Z,0
2016-11-24T05:58:42.542Z,0
2016-11-24T05:59:42.829Z,0
2016-11-24T06:00:42.514Z,0
2016-11-24T06:01:42.514Z,0
2016-11-24T06:02:42.542Z,0
2016-11-24T06:03:42.526Z,0
2016-11-24T06:04:42.781Z,0
2016-11-24T06:05:42.461Z,0
2016-11-24T06:06:42.773Z,0
2016-11-24T06:07:42.450Z,0
2016-11-24T06:08:42.440Z,0
2016-11-24T06:09:42.428Z,0
2016-11-24T06:10:42.421Z,0
2016-11-24T06:11:42.413Z,0
2016-11-24T06:12:42.400Z,0
2016-11-24T06:13:42.383Z,0
2016-11-24T06:14:42.372Z,0
2016-11-24T06:15:42.369Z,0
2016-11-24T06:16:42.371Z,0
2016-11-24T06:17:42.354Z,0
2016-11-24T06:18:42.337Z,0
2016-11-24T06:19:42.373Z,0
2016-11-24T06:20:42.342Z,0
2016-11-24T06:21:42.310Z,0
2016-11-24T06:22:42.303Z,0
2016-11-24T06:23:42.291Z,0
2016-11-24T06:24:42.283Z,0
2016-11-24T06:25:42.272Z,0
2016-11-24T06:26:42.261Z,0
2016-11-24T06:27:42.250Z,0
2016-11-24T06:28:42.246Z,0
2016-11-24T06:29:42.223Z,0
2016-11-24T06:30:42.221Z,0
2016-11-24T06:31:42.218Z,0
2016-11-24T06:32:42.515Z,0
2016-11-24T06:33:42.185Z,0
2016-11-24T06:34:42.521Z,0
2016-11-24T06:35:42.167Z,0
2016-11-24T06:36:42.173Z,0
2016-11-24T06:37:42.159Z,0
2016-11-24T06:38:42.443Z,0
2016-11-24T06:39:42.143Z,0
2016-11-24T06:40:42.126Z,0
2016-11-24T06:41:42.111Z,5
2016-11-24T06:42:42.103Z,5
2016-11-24T06:43:42.097Z,5
2016-11-24T06:44:42.078Z,5
2016-11-24T06:45:42.062Z,5
2016-11-24T06:46:42.067Z,5
2016-11-24T06:47:42.045Z,5
2016-11-24T06:48:42.054Z,5
2016-11-24T06:49:42.034Z,5
2016-11-24T06:50:42.035Z,10
2016-11-24T06:51:42.027Z,10
2016-11-24T06:52:42.007Z,10
2016-11-24T06:53:42.313Z,10
2016-11-24T06:54:41.999Z,10
2016-11-24T06:55:41.968Z,10
2016-11-24T06:56:42.276Z,10
2016-11-24T06:57:41.962Z,15
2016-11-24T06:58:42.250Z,15
2016-11-24T06:59:41.940Z,15
2016-11-24T07:00:41.926Z,15
2016-11-24T07:01:41.911Z,15
2016-11-24T07:02:41.904Z,15
2016-11-24T07:03:41.894Z,15
2016-11-24T07:04:41.887Z,15
2016-11-24T07:05:41.877Z,20
2016-11-24T07:06:41.870Z,20
2016-11-24T07:07:41.854Z,20
2016-11-24T07:08:41.848Z,20
2016-11-24T07:09:41.838Z,25
2016-11-24T07:10:41.827Z,25
2016-11-24T07:11:42.141Z,25
2016-11-24T07:12:41.803Z,30
2016-11-24T07:13:41.804Z,30
2016-11-24T07:14:41.793Z,30
2016-11-24T07:15:41.797Z,30
2016-11-24T07:16:41.803Z,35
2016-11-24T07:17:41.761Z,35
2016-11-24T07:18:41.754Z,30
2016-11-24T07:19:41.753Z,35
2016-11-24T07:20:41.769Z,35
2016-11-24T07:21:41.726Z,30
2016-11-24T07:22:41.714Z,30
2016-11-24T07:23:41.712Z,35
2016-11-24T07:24:41.686Z,35
2016-11-24T07:25:41.680Z,35
2016-11-24T07:26:41.662Z,35
2016-11-24T07:27:41.965Z,35
2016-11-24T07:28:41.661Z,35
2016-11-24T07:29:41.963Z,35
2016-11-24T07:30:41.636Z,40
2016-11-24T07:31:41.656Z,40
2016-11-24T07:32:41.612Z,40
2016-11-24T07:33:41.610Z,40
2016-11-24T07:34:41.590Z,45
2016-11-24T07:35:41.594Z,45
2016-11-24T07:36:41.579Z,45
2016-11-24T07:37:41.573Z,50
2016-11-24T07:38:41.565Z,50
2016-11-24T07:39:41.540Z,45
2016-11-24T07:40:41.543Z,45
2016-11-24T07:41:41.535Z,50
2016-11-24T07:42:41.518Z,50
2016-11-24T07:43:41.513Z,55
2016-11-24T07:44:41.506Z,55
2016-11-24T07:45:41.500Z,60
2016-11-24T07:46:41.483Z,60
2016-11-24T07:47:41.476Z,65
2016-11-24T07:48:41.457Z,65
2016-11-24T07:49:41.460Z,65
2016-11-24T07:50:41.448Z,65
2016-11-24T07:51:41.435Z,65
2016-11-24T07:52:41.428Z,70
2016-11-24T07:53:41.423Z,75
2016-11-24T07:54:41.414Z,75
2016-11-24T07:55:41.713Z,70
2016-11-24T07:56:41.701Z,70
2016-11-24T07:57:41.384Z,70
2016-11-24T07:58:41.378Z,70
2016-11-24T07:59:41.364Z,70
2016-11-24T08:00:41.357Z,70
2016-11-24T08:01:41.339Z,75
2016-11-24T08:02:41.332Z,75
2016-11-24T08:03:41.326Z,80
2016-11-24T08:04:41.345Z,90
2016-11-24T08:05:41.307Z,95
2016-11-24T08:06:41.295Z,110
2016-11-24T08:07:41.289Z,120
2016-11-24T08:08:41.617Z,140
2016-11-24T08:09:41.580Z,170
2016-11-24T08:10:41.262Z,180
2016-11-24T08:11:41.562Z,190
2016-11-24T08:12:41.242Z,195
2016-11-24T08:13:41.240Z,195
2016-11-24T08:14:41.540Z,205
2016-11-24T08:15:41.213Z,210
2016-11-24T08:16:41.195Z,215
2016-11-24T08:17:41.504Z,215
2016-11-24T08:18:41.493Z,225
2016-11-24T08:19:41.186Z,220
2016-11-24T08:20:41.180Z,225
2016-11-24T08:21:41.157Z,225
2016-11-24T08:22:41.150Z,230
2016-11-24T08:23:41.139Z,230
2016-11-24T08:24:41.125Z,235
2016-11-24T08:25:41.149Z,235
2016-11-24T08:26:41.117Z,235
2016-11-24T08:27:41.108Z,235
2016-11-24T08:28:41.098Z,225
2016-11-24T08:29:41.394Z,210
2016-11-24T08:30:41.072Z,215
2016-11-24T08:31:41.074Z,215
2016-11-24T08:32:41.074Z,220
2016-11-24T08:33:41.062Z,225
2016-11-24T08:34:41.050Z,220
2016-11-24T08:35:41.028Z,220
2016-11-24T08:36:41.023Z,220
2016-11-24T08:37:41.018Z,225
2016-11-24T08:38:41.005Z,220
2016-11-24T08:39:40.993Z,225
2016-11-24T08:40:41.029Z,215
2016-11-24T08:41:40.984Z,220
2016-11-24T08:42:41.009Z,220
2016-11-24T08:43:40.971Z,220
2016-11-24T08:44:40.959Z,230
2016-11-24T08:45:41.250Z,225
2016-11-24T08:46:40.951Z,215
2016-11-24T08:47:40.931Z,225
2016-11-24T08:48:40.929Z,210
2016-11-24T08:49:40.919Z,210
2016-11-24T08:50:40.926Z,210
2016-11-24T08:51:40.907Z,210
2016-11-24T08:52:40.885Z,200
2016-11-24T08:53:40.894Z,200
2016-11-24T08:54:40.875Z,205
2016-11-24T08:55:40.871Z,200
2016-11-24T08:56:40.849Z,200
2016-11-24T08:57:40.852Z,200
2016-11-24T08:58:40.841Z,200
2016-11-24T08:59:40.828Z,200
2016-11-24T09:00:40.824Z,200
2016-11-24T09:01:40.816Z,195
2016-11-24T09:02:40.821Z,195
2016-11-24T09:03:40.792Z,195
2016-11-24T09:04:40.784Z,195
2016-11-24T09:05:40.769Z,200
2016-11-24T09:06:41.070Z,200
2016-11-24T09:07:40.752Z,200
2016-11-24T09:08:40.759Z,200
2016-11-24T09:09:40.750Z,195
2016-11-24T09:10:40.745Z,200
2016-11-24T09:11:40.730Z,195
2016-11-24T09:12:40.717Z,195
2016-11-24T09:13:40.707Z,190
2016-11-24T09:14:40.706Z,190
2016-11-24T09:15:40.684Z,185
2016-11-24T09:16:40.703Z,185
2016-11-24T09:17:40.681Z,180
2016-11-24T09:18:40.663Z,175
2016-11-24T09:19:40.652Z,175
2016-11-24T09:20:40.660Z,170
2016-11-24T09:21:40.638Z,165
2016-11-24T09:22:40.625Z,170
2016-11-24T09:23:40.667Z,165
2016-11-24T09:24:40.623Z,160
2016-11-24T09:25:40.602Z,160
2016-11-24T09:26:40.602Z,160
2016-11-24T09:27:40.594Z,160
2016-11-24T09:28:40.575Z,155
2016-11-24T09:29:40.555Z,155
2016-11-24T09:30:40.601Z,155
2016-11-24T09:31:40.563Z,150
2016-11-24T09:32:40.542Z,150
2016-11-24T09:33:40.537Z,150
2016-11-24T09:34:40.523Z,150
2016-11-24T09:35:40.520Z,150
2016-11-24T09:36:40.505Z,150
2016-11-24T09:37:40.816Z,150
2016-11-24T09:38:40.485Z,150
2016-11-24T09:39:40.473Z,145
2016-11-24T09:40:40.474Z,145
2016-11-24T09:41:40.453Z,145
2016-11-24T09:42:40.449Z,145
2016-11-24T09:43:40.748Z,145
2016-11-24T09:44:40.433Z,145
2016-11-24T09:45:40.425Z,145
2016-11-24T09:46:40.417Z,150
2016-11-24T09:47:40.709Z,140
2016-11-24T09:48:40.438Z,140
2016-11-24T09:49:40.403Z,140
2016-11-24T09:50:40.374Z,140
2016-11-24T09:51:40.676Z,140
2016-11-24T09:52:40.359Z,140
2016-11-24T09:53:40.357Z,140
2016-11-24T09:54:40.345Z,140
2016-11-24T09:55:40.339Z,140
2016-11-24T09:56:40.330Z,140
2016-11-24T09:57:40.310Z,140
2016-11-24T09:58:40.307Z,140
2016-11-24T09:59:40.294Z,140
2016-11-24T10:00:40.288Z,140
2016-11-24T10:01:40.276Z,140
2016-11-24T10:02:40.271Z,140
2016-11-24T10:03:40.258Z,140
2016-11-24T10:04:40.256Z,140
2016-11-24T10:05:40.243Z,140
2016-11-24T10:06:40.240Z,145
2016-11-24T10:07:40.213Z,145
2016-11-24T10:08:40.214Z,140
2016-11-24T10:09:40.203Z,140
2016-11-24T10:10:40.191Z,140
2016-11-24T10:11:40.176Z,140
2016-11-24T10:12:40.174Z,140
2016-11-24T10:13:40.167Z,140
2016-11-24T10:14:40.159Z,140
2016-11-24T10:15:40.159Z,140
2016-11-24T10:16:40.137Z,135
2016-11-24T10:17:40.140Z,135
2016-11-24T10:18:40.431Z,135
2016-11-24T10:19:40.109Z,135
2016-11-24T10:20:40.100Z,135
2016-11-24T10:21:40.083Z,130
2016-11-24T10:22:40.390Z,130
2016-11-24T10:23:40.078Z,130
2016-11-24T10:24:40.067Z,130
2016-11-24T10:25:40.045Z,130
2016-11-24T10:26:40.045Z,130
2016-11-24T10:27:40.040Z,130
2016-11-24T10:28:40.025Z,130
2016-11-24T10:29:40.017Z,135
2016-11-24T10:30:40.026Z,135
2016-11-24T10:31:39.992Z,135
2016-11-24T10:32:39.981Z,140
2016-11-24T10:33:40.016Z,140
2016-11-24T10:34:40.269Z,140
2016-11-24T10:35:39.958Z,140
2016-11-24T10:36:40.034Z,145
2016-11-24T10:37:39.994Z,140
2016-11-24T10:38:39.931Z,140
2016-11-24T10:39:39.925Z,145
2016-11-24T10:40:39.907Z,145
2016-11-24T10:41:39.896Z,145
2016-11-24T10:42:40.206Z,150
2016-11-24T10:43:39.890Z,150
2016-11-24T10:44:39.866Z,150
2016-11-24T10:45:39.855Z,155
2016-11-24T10:46:39.844Z,155
2016-11-24T10:47:39.842Z,155
2016-11-24T10:48:39.841Z,155
2016-11-24T10:49:39.827Z,155
2016-11-24T10:50:40.154Z,155
2016-11-24T10:51:39.812Z,160
2016-11-24T10:52:40.090Z,160
2016-11-24T10:53:39.815Z,160
2016-11-24T10:54:39.776Z,160
2016-11-24T10:55:39.770Z,160
2016-11-24T10:56:39.758Z,160
2016-11-24T10:57:39.744Z,160
2016-11-24T10:58:39.782Z,165
2016-11-24T10:59:39.729Z,165
2016-11-24T11:00:39.725Z,165
2016-11-24T11:01:39.706Z,170
2016-11-24T11:02:39.709Z,170
2016-11-24T11:03:39.687Z,170
2016-11-24T11:04:39.688Z,170
2016-11-24T11:05:39.671Z,170
2016-11-24T11:06:39.976Z,170
2016-11-24T11:07:39.655Z,170
2016-11-24T11:08:39.645Z,170
2016-11-24T11:09:39.628Z,170
2016-11-24T11:10:39.631Z,175
2016-11-24T11:11:39.628Z,175
2016-11-24T11:12:39.912Z,175
2016-11-24T11:13:39.631Z,175
2016-11-24T11:14:39.589Z,175
2016-11-24T11:15:39.573Z,180
2016-11-24T11:16:39.578Z,175
2016-11-24T11:17:39.560Z,175
2016-11-24T11:18:39.544Z,175
2016-11-24T11:19:39.545Z,175
2016-11-24T11:20:39.537Z,175
2016-11-24T11:21:39.832Z,175
2016-11-24T11:22:39.518Z,175
2016-11-24T11:23:39.506Z,170
2016-11-24T11:24:39.802Z,170
2016-11-24T11:25:39.496Z,170
2016-11-24T11:26:39.484Z,170
2016-11-24T11:27:39.472Z,170
2016-11-24T11:28:39.460Z,165
2016-11-24T11:29:39.465Z,165
2016-11-24T11:30:39.745Z,165
2016-11-24T11:31:39.432Z,165
2016-11-24T11:32:39.451Z,165
2016-11-24T11:33:39.420Z,165
2016-11-24T11:34:39.418Z,165
2016-11-24T11:35:39.400Z,165
2016-11-24T11:36:39.397Z,165
2016-11-24T11:37:39.387Z,160
2016-11-24T11:38:39.374Z,160
2016-11-24T11:39:39.371Z,160
2016-11-24T11:40:39.354Z,160
2016-11-24T11:41:39.337Z,160
2016-11-24T11:42:39.338Z,160
2016-11-24T11:43:39.330Z,160
2016-11-24T11:44:39.314Z,160
2016-11-24T11:45:39.318Z,160
2016-11-24T11:46:39.304Z,160
2016-11-24T11:47:39.287Z,160
2016-11-24T11:48:39.279Z,165
2016-11-24T11:49:39.270Z,165
2016-11-24T11:50:39.569Z,165
2016-11-24T11:51:39.563Z,165
2016-11-24T11:52:39.558Z,170
2016-11-24T11:53:39.238Z,170
2016-11-24T11:54:39.557Z,170
2016-11-24T11:55:39.221Z,170
2016-11-24T11:56:39.202Z,175
2016-11-24T11:57:39.202Z,175
2016-11-24T11:58:39.189Z,175
2016-11-24T11:59:39.178Z,175
2016-11-24T12:00:39.171Z,180
2016-11-24T12:01:39.166Z,175
2016-11-24T12:02:39.157Z,175
2016-11-24T12:03:39.145Z,180
2016-11-24T12:04:39.145Z,180
2016-11-24T12:05:39.128Z,190
2016-11-24T12:06:39.120Z,185
2016-11-24T12:07:39.114Z,190
2016-11-24T12:08:39.094Z,190
2016-11-24T12:09:39.092Z,190
2016-11-24T12:10:39.092Z,195
2016-11-24T12:11:39.082Z,195
2016-11-24T12:12:39.063Z,195
2016-11-24T12:13:39.048Z,195
2016-11-24T12:14:39.048Z,200
2016-11-24T12:15:39.041Z,200
2016-11-24T12:16:39.026Z,200
2016-11-24T12:17:39.021Z,200
2016-11-24T12:18:39.019Z,200
2016-11-24T12:19:38.996Z,200
2016-11-24T12:20:39.004Z,205
2016-11-24T12:21:38.989Z,205
2016-11-24T12:22:38.990Z,205
2016-11-24T12:23:38.989Z,205
2016-11-24T12:24:39.279Z,205
2016-11-24T12:25:38.960Z,205
2016-11-24T12:26:38.947Z,210
2016-11-24T12:27:38.941Z,205
2016-11-24T12:28:38.929Z,205
2016-11-24T12:29:38.921Z,205
2016-11-24T12:30:38.908Z,205
2016-11-24T12:31:38.911Z,205
2016-11-24T12:32:38.900Z,205
2016-11-24T12:33:38.899Z,205
2016-11-24T12:34:38.886Z,205
2016-11-24T12:35:38.873Z,205
2016-11-24T12:36:38.866Z,205
2016-11-24T12:37:38.864Z,205
2016-11-24T12:38:38.856Z,205
2016-11-24T12:39:39.147Z,205
2016-11-24T12:40:39.139Z,205
2016-11-24T12:41:38.826Z,205
2016-11-24T12:42:38.809Z,205
2016-11-24T12:43:38.796Z,205
2016-11-24T12:44:38.839Z,205
2016-11-24T12:45:38.786Z,205
2016-11-24T12:46:38.794Z,200
2016-11-24T12:47:38.773Z,200
2016-11-24T12:48:38.772Z,200
2016-11-24T12:49:38.757Z,200
2016-11-24T12:50:38.762Z,195
2016-11-24T12:51:38.735Z,200
2016-11-24T12:52:38.727Z,195
2016-11-24T12:53:39.051Z,195
2016-11-24T12:54:38.715Z,195
2016-11-24T12:55:38.743Z,195
2016-11-24T12:56:38.735Z,195
2016-11-24T12:57:38.695Z,195
2016-11-24T12:58:38.693Z,195
2016-11-24T12:59:38.680Z,195
2016-11-24T13:00:38.676Z,190
2016-11-24T13:01:38.671Z,190
2016-11-24T13:02:38.654Z,190
2016-11-24T13:03:38.682Z,190
2016-11-24T13:04:38.661Z,185
2016-11-24T13:05:38.648Z,185
2016-11-24T13:06:38.627Z,185
2016-11-24T13:07:38.618Z,180
2016-11-24T13:08:38.910Z,180
2016-11-24T13:09:38.924Z,175
2016-11-24T13:10:38.594Z,175
2016-11-24T13:11:38.592Z,175
2016-11-24T13:12:38.572Z,170
2016-11-24T13:13:38.583Z,170
2016-11-24T13:14:38.559Z,165
2016-11-24T13:15:38.553Z,165
2016-11-24T13:16:38.535Z,160
2016-11-24T13:17:38.846Z,160
2016-11-24T13:18:38.534Z,160
2016-11-24T13:19:38.560Z,155
2016-11-24T13:20:38.516Z,155
2016-11-24T13:21:38.516Z,155
2016-11-24T13:22:38.527Z,155
2016-11-24T13:23:38.486Z,155
2016-11-24T13:24:38.491Z,155
2016-11-24T13:25:38.484Z,150
2016-11-24T13:26:38.507Z,150
2016-11-24T13:27:38.465Z,150
2016-11-24T13:28:38.447Z,145
2016-11-24T13:29:38.453Z,145
2016-11-24T13:30:38.436Z,145
2016-11-24T13:31:38.727Z,145
2016-11-24T13:32:38.419Z,140
2016-11-24T13:33:38.410Z,140
2016-11-24T13:34:38.427Z,140
2016-11-24T13:35:38.394Z,135
2016-11-24T13:36:38.691Z,135
2016-11-24T13:37:38.703Z,135
2016-11-24T13:38:38.374Z,135
2016-11-24T13:39:38.356Z,130
2016-11-24T13:40:38.350Z,130
2016-11-24T13:41:38.358Z,130
2016-11-24T13:42:38.341Z,125
2016-11-24T13:43:38.326Z,125
2016-11-24T13:44:38.324Z,125
2016-11-24T13:45:38.314Z,120
2016-11-24T13:46:38.296Z,120
2016-11-24T13:47:38.294Z,120
2016-11-24T13:48:38.278Z,120
2016-11-24T13:49:38.269Z,115
2016-11-24T13:50:38.578Z,115
2016-11-24T13:51:38.270Z,115
2016-11-24T13:52:38.245Z,110
2016-11-24T13:53:38.552Z,110
2016-11-24T13:54:38.224Z,110
2016-11-24T13:55:38.215Z,105
2016-11-24T13:56:38.213Z,105
2016-11-24T13:57:38.198Z,100
2016-11-24T13:58:38.507Z,100
2016-11-24T13:59:38.194Z,95
2016-11-24T14:00:38.194Z,95
2016-11-24T14:01:38.172Z,95
2016-11-24T14:02:38.162Z,95
2016-11-24T14:03:38.158Z,95
2016-11-24T14:04:38.151Z,95
2016-11-24T14:05:38.178Z,90
2016-11-24T14:06:38.123Z,90
2016-11-24T14:07:38.118Z,85
2016-11-24T14:08:38.117Z,85
2016-11-24T14:09:38.112Z,80
2016-11-24T14:10:38.087Z,80
2016-11-24T14:11:38.079Z,80
2016-11-24T14:12:38.086Z,75
2016-11-24T14:13:38.057Z,75
2016-11-24T14:14:38.058Z,75
2016-11-24T14:15:38.053Z,70
2016-11-24T14:16:38.029Z,70
2016-11-24T14:17:38.039Z,70